Time;durP1;ratioP1;P1;durP2;ratioP2;P2;SDS_P1;SDS_P2;PMS_P1;PMS_P2;Temp;Humidity;BMP_temperature;BMP_pressure;BME280_temperature;BME280_humidity;BME280_pressure;Samples;Min_cycle;Max_cycle;Signal;HPM_P1;HPM_P2
2022/11/03 00:00:01;;;;;;;69.87;10.83;;;;;7.70;96843.00;;;;10185213;23;20209;-70
2022/11/03 00:04:32;;;;;;;78.17;11.47;;;;;7.80;96837.00;;;;10184580;23;20264;-70
2022/11/03 00:08:37;;;;;;;117.97;14.33;;;;;7.80;96830.00;;;;10183468;23;20194;-70
2022/11/03 00:13:11;;;;;;;162.20;15.40;;;;;7.80;96816.00;;;;10185170;23;20189;-70
2022/11/03 00:17:15;;;;;;;238.00;19.07;;;;;7.90;96817.00;;;;10183664;23;20205;-70
2022/11/03 00:21:22;;;;;;;218.00;18.97;;;;;8.00;96824.00;;;;10184688;23;20229;-70
2022/11/03 00:25:25;;;;;;;222.63;19.70;;;;;8.20;96820.00;;;;10184224;23;20197;-70
2022/11/03 00:29:28;;;;;;;140.93;14.43;;;;;8.30;96816.00;;;;10184919;23;20193;-70
2022/11/03 00:34:07;;;;;;;111.47;13.80;;;;;8.30;96811.00;;;;10182992;23;20233;-70
2022/11/03 00:38:10;;;;;;;70.40;10.80;;;;;8.30;96821.00;;;;10184117;23;20306;-70
2022/11/03 00:42:13;;;;;;;142.63;13.10;;;;;8.40;96821.00;;;;10183471;23;20198;-71
2022/11/03 00:46:50;;;;;;;102.30;10.10;;;;;8.30;96813.00;;;;10184030;23;20209;-70
2022/11/03 00:50:54;;;;;;;90.95;11.90;;;;;8.30;96814.00;;;;10183712;23;20236;-70
2022/11/03 00:54:57;;;;;;;148.10;15.00;;;;;8.30;96805.00;;;;10184358;23;20531;-70
2022/11/03 00:59:01;;;;;;;157.02;13.48;;;;;8.30;96802.00;;;;10184513;23;20205;-70
2022/11/03 01:03:04;;;;;;;194.80;15.13;;;;;8.30;96805.00;;;;10183371;23;20198;-70
2022/11/03 01:07:43;;;;;;;126.25;14.05;;;;;8.40;96800.00;;;;10182723;23;20273;-70
2022/11/03 01:11:53;;;;;;;112.47;12.20;;;;;8.40;96791.00;;;;10183808;23;20447;-70
2022/11/03 01:15:57;;;;;;;89.35;11.60;;;;;8.50;96785.00;;;;10184593;23;20701;-70
2022/11/03 01:20:01;;;;;;;101.07;11.93;;;;;8.60;96790.00;;;;10183004;23;20194;-70
2022/11/03 01:24:06;;;;;;;178.85;15.02;;;;;8.60;96776.00;;;;10184768;23;20194;-70
2022/11/03 01:28:09;;;;;;;117.77;11.80;;;;;8.60;96765.00;;;;10183681;23;20194;-70
2022/11/03 01:32:45;;;;;;;167.37;13.90;;;;;8.60;96761.00;;;;10186498;23;20202;-70
2022/11/03 01:36:49;;;;;;;157.60;13.27;;;;;8.60;96761.00;;;;10187014;23;20640;-71
2022/11/03 01:41:25;;;;;;;159.13;14.03;;;;;8.60;96746.00;;;;10186712;23;20493;-70
2022/11/03 01:45:30;;;;;;;290.80;17.47;;;;;8.60;96751.00;;;;10187023;23;20186;-70
2022/11/03 01:49:39;;;;;;;227.60;17.27;;;;;8.60;96739.00;;;;10186571;23;20193;-70
2022/11/03 01:53:44;;;;;;;177.67;15.27;;;;;8.70;96739.00;;;;10186496;23;20198;-70
2022/11/03 01:57:52;;;;;;;164.37;14.57;;;;;8.70;96742.00;;;;10187012;23;20225;-69
2022/11/03 02:02:25;;;;;;;137.50;13.33;;;;;8.70;96736.00;;;;10186658;23;20216;-70
2022/11/03 02:06:29;;;;;;;115.63;12.43;;;;;8.70;96722.00;;;;10187152;23;20236;-70
2022/11/03 02:10:34;;;;;;;205.45;15.00;;;;;8.70;96720.00;;;;10186637;23;20190;-70
2022/11/03 02:14:42;;;;;;;119.40;12.83;;;;;8.70;96713.00;;;;10186686;23;20194;-70
2022/11/03 02:19:19;;;;;;;128.93;13.57;;;;;8.80;96705.00;;;;10185887;23;20202;-70
2022/11/03 02:23:30;;;;;;;188.53;16.20;;;;;8.80;96696.00;;;;10187270;23;20201;-70
2022/11/03 02:27:59;;;;;;;182.35;15.15;;;;;8.90;96693.00;;;;10185688;23;20204;-70
2022/11/03 02:32:07;;;;;;;231.00;17.20;;;;;8.90;96695.00;;;;10187019;23;20198;-70
2022/11/03 02:36:18;;;;;;;266.87;18.87;;;;;8.90;96684.00;;;;10185448;23;20629;-70
2022/11/03 02:40:26;;;;;;;211.35;17.17;;;;;8.80;96680.00;;;;10185635;23;20208;-71
2022/11/03 02:44:33;;;;;;;193.32;17.15;;;;;8.90;96675.00;;;;10186006;23;20210;-71
2022/11/03 02:48:37;;;;;;;254.80;18.17;;;;;8.90;96677.00;;;;10186296;23;20201;-70
2022/11/03 02:52:42;;;;;;;339.88;23.48;;;;;8.90;96669.00;;;;10186541;23;20201;-71
2022/11/03 02:57:22;;;;;;;335.40;21.92;;;;;9.00;96664.00;;;;10185922;23;20222;-71
2022/11/03 03:02:02;;;;;;;430.45;25.90;;;;;9.10;96656.00;;;;10184637;23;20505;-70
2022/11/03 03:06:09;;;;;;;392.15;25.48;;;;;9.20;96651.00;;;;10186144;23;20217;-70
2022/11/03 03:10:16;;;;;;;481.60;27.35;;;;;9.20;96658.00;;;;10185371;23;20207;-70
2022/11/03 03:14:23;;;;;;;491.23;28.13;;;;;9.20;96665.00;;;;10185789;23;20643;-71
2022/11/03 03:19:03;;;;;;;391.92;24.70;;;;;9.20;96646.00;;;;10185118;23;20205;-71
2022/11/03 03:23:13;;;;;;;388.88;24.65;;;;;9.20;96645.00;;;;10186048;23;20470;-70
2022/11/03 03:27:43;;;;;;;512.33;27.27;;;;;9.20;96624.00;;;;10185720;23;20201;-71
2022/11/03 03:31:51;;;;;;;353.03;21.20;;;;;9.10;96635.00;;;;10186578;23;20190;-71
2022/11/03 03:36:24;;;;;;;271.37;18.90;;;;;9.00;96646.00;;;;10183556;23;20194;-71
2022/11/03 03:40:59;;;;;;;250.80;18.42;;;;;8.90;96631.00;;;;10185178;23;20200;-70
2022/11/03 03:45:35;;;;;;;335.83;22.08;;;;;8.80;96627.00;;;;10185474;23;20193;-70
2022/11/03 03:49:39;;;;;;;254.23;18.48;;;;;8.80;96629.00;;;;10183942;23;20767;-70
2022/11/03 03:53:44;;;;;;;334.88;21.20;;;;;8.70;96634.00;;;;10184207;23;20532;-70
2022/11/03 03:57:47;;;;;;;392.20;23.40;;;;;8.70;96629.00;;;;10185823;23;20202;-70
2022/11/03 04:01:50;;;;;;;326.98;20.17;;;;;8.60;96633.00;;;;10182972;23;20206;-70
2022/11/03 04:06:27;;;;;;;340.02;19.83;;;;;8.60;96622.00;;;;10185212;23;20322;-70
2022/11/03 04:10:31;;;;;;;343.90;19.40;;;;;8.50;96622.00;;;;10185837;23;20228;-70
2022/11/03 04:23:46;;;;;;;183.73;15.68;;;;;8.50;96604.00;;;;10184342;23;20194;-69
2022/11/03 04:28:25;;;;;;;242.77;18.23;;;;;8.50;96598.00;;;;10182568;23;20202;-69
2022/11/03 04:32:30;;;;;;;292.08;16.73;;;;;8.50;96590.00;;;;10183509;23;20518;-69
2022/11/03 04:37:06;;;;;;;326.83;18.40;;;;;8.50;96589.00;;;;10174679;23;20222;-69
2022/11/03 04:41:44;;;;;;;350.23;19.80;;;;;8.50;96592.00;;;;10182462;23;20378;-69
2022/11/03 04:46:26;;;;;;;184.50;14.30;;;;;8.50;96585.00;;;;10180029;23;20462;-69
2022/11/03 04:50:59;;;;;;;277.33;16.63;;;;;8.50;96574.00;;;;10183025;23;20497;-68
2022/11/03 04:59:10;;;;;;;283.05;16.35;;;;;8.50;96577.00;;;;10050665;23;20283;-74
2022/11/03 05:03:20;;;;;;;177.88;14.13;;;;;8.50;96561.00;;;;10042888;23;20203;-74
2022/11/03 05:07:32;;;;;;;139.47;12.33;;;;;8.50;96558.00;;;;10016516;23;20204;-73
2022/11/03 05:11:41;;;;;;;132.27;12.20;;;;;8.50;96551.00;;;;10023655;23;20212;-73
2022/11/03 05:15:46;;;;;;;160.27;12.50;;;;;8.40;96544.00;;;;10024722;23;20211;-74
2022/11/03 05:19:51;;;;;;;291.83;16.10;;;;;8.30;96549.00;;;;10027933;23;20208;-73
2022/11/03 05:23:58;;;;;;;351.33;17.90;;;;;8.10;96532.00;;;;10025486;23;20211;-73
2022/11/03 05:28:01;;;;;;;192.57;12.65;;;;;8.00;96530.00;;;;10028435;23;20208;-73
2022/11/03 05:32:11;;;;;;;427.67;20.43;;;;;7.80;96528.00;;;;10024962;23;20216;-74
2022/11/03 05:36:20;;;;;;;332.30;16.87;;;;;7.70;96526.00;;;;10028298;23;20200;-74
2022/11/03 05:40:25;;;;;;;260.70;14.77;;;;;7.70;96521.00;;;;10025342;23;20632;-72
2022/11/03 05:44:35;;;;;;;348.17;17.57;;;;;7.70;96520.00;;;;10028748;23;20199;-72
2022/11/03 05:48:42;;;;;;;230.37;13.57;;;;;7.60;96513.00;;;;10026309;23;20208;-75
2022/11/03 05:52:49;;;;;;;261.30;14.53;;;;;7.50;96510.00;;;;10027693;23;20504;-72
2022/11/03 05:56:53;;;;;;;196.30;12.90;;;;;7.50;96507.00;;;;10048602;23;20203;-73
2022/11/03 06:00:57;;;;;;;196.73;13.37;;;;;7.40;96504.00;;;;10073928;23;20258;-73
2022/11/03 06:05:00;;;;;;;136.88;11.23;;;;;7.50;96500.00;;;;10073672;23;20274;-74
2022/11/03 06:09:15;;;;;;;246.95;13.75;;;;;7.50;96503.00;;;;10075382;23;20265;-74
2022/11/03 06:13:22;;;;;;;344.13;16.33;;;;;7.40;96496.00;;;;10072359;23;20625;-74
2022/11/03 06:17:28;;;;;;;276.90;18.02;;;;;7.30;96497.00;;;;10072192;23;20199;-74
2022/11/03 06:21:31;;;;;;;200.90;13.63;;;;;7.30;96491.00;;;;10072603;23;20199;-73
2022/11/03 06:25:37;;;;;;;116.43;10.20;;;;;7.20;96480.00;;;;10071835;23;20214;-75
2022/11/03 06:29:40;;;;;;;300.37;15.97;;;;;7.20;96478.00;;;;10072753;23;20199;-75
2022/11/03 06:33:43;;;;;;;208.80;13.70;;;;;7.30;96477.00;;;;10073452;23;20850;-75
2022/11/03 06:37:46;;;;;;;252.93;15.13;;;;;7.40;96474.00;;;;10073393;23;20289;-74
2022/11/03 06:41:51;;;;;;;150.97;11.87;;;;;7.40;96469.00;;;;10121339;23;20229;-73
2022/11/03 06:45:56;;;;;;;102.63;10.13;;;;;7.50;96470.00;;;;10120110;23;20569;-74
2022/11/03 06:50:00;;;;;;;146.57;11.23;;;;;7.60;96459.00;;;;10121443;23;20202;-74
2022/11/03 06:54:09;;;;;;;158.90;12.17;;;;;7.70;96456.00;;;;10121183;23;20668;-74
2022/11/03 06:58:17;;;;;;;189.83;13.73;;;;;7.70;96461.00;;;;10119926;23;20607;-74
2022/11/03 07:02:45;;;;;;;121.27;10.23;;;;;7.80;96454.00;;;;10121598;23;20699;-74
2022/11/03 07:06:49;;;;;;;250.10;15.18;;;;;8.00;96439.00;;;;10118658;23;20257;-74
2022/11/03 07:11:02;;;;;;;201.60;12.90;;;;;8.20;96435.00;;;;10105741;23;20755;-74
2022/11/03 07:15:19;;;;;;;316.57;16.87;;;;;8.30;96428.00;;;;10116018;23;20269;-74
2022/11/03 07:19:26;;;;;;;363.90;20.42;;;;;8.30;96433.00;;;;10106158;23;20214;-74
2022/11/03 07:23:30;;;;;;;393.60;21.97;;;;;8.20;96442.00;;;;10114572;23;20206;-75
2022/11/03 07:27:38;;;;;;;176.20;11.43;;;;;8.20;96436.00;;;;10121170;23;20883;-74
2022/11/03 07:31:42;;;;;;;269.23;17.97;;;;;8.40;96432.00;;;;10117563;23;20664;-75
2022/11/03 07:35:47;;;;;;;348.98;20.67;;;;;8.50;96423.00;;;;10120100;23;20321;-75
2022/11/03 07:40:13;;;;;;;340.55;19.80;;;;;8.40;96425.00;;;;10073199;23;20215;-74
2022/11/03 07:44:20;;;;;;;90.97;10.68;;;;;8.50;96411.00;;;;10069404;23;20230;-77
2022/11/03 07:48:27;;;;;;;91.10;9.20;;;;;8.40;96411.00;;;;10069091;23;20199;-75
2022/11/03 07:52:30;;;;;;;314.70;17.23;;;;;8.50;96392.00;;;;10069110;23;20290;-76
2022/11/03 07:56:37;;;;;;;254.43;17.25;;;;;8.60;96392.00;;;;10066891;23;20207;-76
2022/11/03 08:00:40;;;;;;;44.53;7.33;;;;;8.80;96390.00;;;;10070180;23;20571;-76
2022/11/03 08:04:45;;;;;;;74.78;8.82;;;;;8.90;96385.00;;;;10067125;23;20215;-75
2022/11/03 08:08:48;;;;;;;106.90;9.50;;;;;8.90;96382.00;;;;10070328;23;20474;-76
2022/11/03 08:12:51;;;;;;;113.40;10.05;;;;;8.90;96380.00;;;;10068547;23;20838;-75
2022/11/03 08:16:54;;;;;;;67.13;9.52;;;;;9.10;96372.00;;;;10071632;23;20205;-75
2022/11/03 08:20:58;;;;;;;23.73;7.10;;;;;9.10;96367.00;;;;10069818;23;20712;-75
2022/11/03 08:25:01;;;;;;;17.38;6.90;;;;;9.20;96368.00;;;;10071065;23;20308;-75
2022/11/03 08:29:05;;;;;;;15.32;6.38;;;;;9.30;96354.00;;;;10066844;23;20200;-72
2022/11/03 08:33:08;;;;;;;15.98;6.05;;;;;9.30;96346.00;;;;10069672;23;20215;-75
2022/11/03 08:37:12;;;;;;;14.23;6.03;;;;;9.30;96336.00;;;;10068867;23;20254;-74
2022/11/03 08:41:15;;;;;;;17.10;6.00;;;;;9.30;96336.00;;;;10069112;23;20209;-75
2022/11/03 08:45:19;;;;;;;15.95;6.05;;;;;9.20;96319.00;;;;10071072;23;20210;-77
2022/11/03 08:49:22;;;;;;;14.30;6.07;;;;;9.20;96321.00;;;;10067429;23;20203;-78
2022/11/03 08:53:27;;;;;;;18.75;6.15;;;;;9.30;96310.00;;;;10071392;23;20196;-76
2022/11/03 08:57:30;;;;;;;20.33;7.00;;;;;9.40;96304.00;;;;10068601;23;20936;-76
2022/11/03 09:01:33;;;;;;;27.90;7.45;;;;;9.40;96306.00;;;;10069581;23;20213;-76
2022/11/03 09:05:38;;;;;;;20.85;7.63;;;;;9.30;96291.00;;;;10070316;23;20234;-77
2022/11/03 09:09:42;;;;;;;18.38;6.65;;;;;9.20;96290.00;;;;10070945;23;20214;-77
2022/11/03 09:14:05;;;;;;;13.52;6.43;;;;;9.20;96292.00;;;;10114503;23;20198;-77
2022/11/03 09:18:08;;;;;;;16.85;6.70;;;;;9.30;96286.00;;;;10119741;23;20206;-77
2022/11/03 09:22:12;;;;;;;17.08;6.43;;;;;9.30;96279.00;;;;10117572;23;20290;-77
2022/11/03 09:26:16;;;;;;;15.18;6.13;;;;;9.50;96283.00;;;;10118861;23;20541;-75
2022/11/03 09:30:20;;;;;;;12.32;5.38;;;;;9.70;96274.00;;;;10117675;23;20206;-77
2022/11/03 09:34:23;;;;;;;9.77;6.03;;;;;10.00;96256.00;;;;10119461;23;20206;-76
2022/11/03 09:38:26;;;;;;;9.27;5.10;;;;;10.20;96267.00;;;;10117925;23;20200;-77
2022/11/03 09:42:33;;;;;;;17.20;5.15;;;;;10.40;96258.00;;;;10118965;23;20288;-78
2022/11/03 09:46:36;;;;;;;7.25;4.82;;;;;10.60;96249.00;;;;10118312;23;20206;-76
2022/11/03 09:50:40;;;;;;;6.50;4.60;;;;;10.70;96243.00;;;;10118955;23;20274;-76
2022/11/03 09:54:43;;;;;;;8.02;5.13;;;;;10.90;96239.00;;;;10118431;23;20198;-76
2022/11/03 09:58:47;;;;;;;7.32;4.88;;;;;11.00;96231.00;;;;10119021;23;20218;-76
2022/11/03 10:02:56;;;;;;;12.38;5.05;;;;;11.10;96229.00;;;;10119065;23;20210;-75
2022/11/03 10:06:59;;;;;;;8.30;4.55;;;;;11.20;96223.00;;;;10072984;23;20202;-76
2022/11/03 10:11:06;;;;;;;9.98;4.13;;;;;11.30;96219.00;;;;10073855;23;20206;-75
2022/11/03 10:15:16;;;;;;;9.95;3.85;;;;;11.40;96206.00;;;;10073132;23;20207;-76
2022/11/03 10:19:20;;;;;;;12.93;3.92;;;;;11.60;96195.00;;;;10097144;23;20195;-76
2022/11/03 10:23:23;;;;;;;10.02;4.22;;;;;11.80;96198.00;;;;10120615;23;20195;-76
2022/11/03 10:27:26;;;;;;;12.63;4.50;;;;;12.00;96196.00;;;;10116397;23;20202;-75
2022/11/03 10:31:36;;;;;;;6.97;3.47;;;;;12.20;96184.00;;;;10069683;23;20210;-77
2022/11/03 10:35:40;;;;;;;10.60;4.25;;;;;12.30;96191.00;;;;10071318;23;20310;-78
2022/11/03 10:39:44;;;;;;;9.23;4.57;;;;;12.40;96177.00;;;;10071021;23;20680;-77
2022/11/03 10:44:00;;;;;;;12.20;5.15;;;;;12.50;96168.00;;;;10072786;23;20237;-77
2022/11/03 10:48:07;;;;;;;9.10;5.47;;;;;12.70;96159.00;;;;10070717;23;20199;-78
2022/11/03 10:52:19;;;;;;;11.25;4.53;;;;;12.80;96149.00;;;;10070453;23;20271;-76
2022/11/03 10:56:22;;;;;;;11.02;5.60;;;;;12.80;96147.00;;;;10105471;23;20293;-77
2022/11/03 11:00:25;;;;;;;9.50;5.30;;;;;12.90;96139.00;;;;10120150;23;20214;-77
2022/11/03 11:04:32;;;;;;;11.15;5.20;;;;;12.90;96139.00;;;;10119834;23;20203;-79
2022/11/03 11:08:37;;;;;;;10.35;5.47;;;;;13.00;96147.00;;;;10077068;23;20590;-77
2022/11/03 11:13:23;;;;;;;9.90;5.45;;;;;13.00;96142.00;;;;10070179;23;20206;-80
2022/11/03 11:17:44;;;;;;;8.52;5.28;;;;;13.10;96140.00;;;;10072009;23;20199;-79
2022/11/03 11:22:12;;;;;;;10.23;5.63;;;;;13.10;96137.00;;;;10117593;23;20270;-76
2022/11/03 11:26:29;;;;;;;8.07;5.22;;;;;13.10;96137.00;;;;10070571;23;20195;-78
2022/11/03 11:31:03;;;;;;;9.60;5.13;;;;;13.20;96136.00;;;;10095743;23;20206;-78
2022/11/03 11:35:07;;;;;;;8.90;5.10;;;;;13.30;96127.00;;;;10111611;23;20203;-77
2022/11/03 11:39:34;;;;;;;11.85;5.30;;;;;13.40;96128.00;;;;10118514;23;20238;-76
2022/11/03 11:43:38;;;;;;;9.02;5.45;;;;;13.50;96111.00;;;;10070986;23;20226;-75
2022/11/03 11:47:48;;;;;;;9.43;4.80;;;;;13.60;96102.00;;;;10078073;23;20202;-75
2022/11/03 11:51:52;;;;;;;10.80;5.60;;;;;13.80;96096.00;;;;10120519;23;20238;-74
2022/11/03 11:55:58;;;;;;;6.47;4.78;;;;;13.90;96085.00;;;;10117640;23;20206;-75
2022/11/03 12:00:01;;;;;;;7.82;4.57;;;;;14.00;96076.00;;;;10119600;23;20202;-74
2022/11/03 12:04:08;;;;;;;11.50;5.07;;;;;14.00;96065.00;;;;10110593;23;20203;-74
2022/11/03 12:08:19;;;;;;;8.27;4.88;;;;;14.10;96077.00;;;;10119019;23;20277;-74
2022/11/03 12:12:35;;;;;;;13.43;4.50;;;;;14.20;96071.00;;;;10116230;23;20214;-73
2022/11/03 12:16:38;;;;;;;8.45;4.55;;;;;14.30;96065.00;;;;10109895;23;20203;-74
2022/11/03 12:20:47;;;;;;;9.70;4.70;;;;;14.50;96054.00;;;;10117105;23;20206;-73
2022/11/03 12:24:52;;;;;;;9.75;4.05;;;;;14.60;96052.00;;;;10117634;23;20293;-75
2022/11/03 12:28:57;;;;;;;5.32;3.80;;;;;14.80;96039.00;;;;10118044;23;20199;-75
2022/11/03 12:33:00;;;;;;;8.57;3.75;;;;;15.00;96036.00;;;;10118707;23;20633;-74
2022/11/03 12:37:03;;;;;;;5.43;3.97;;;;;15.30;96037.00;;;;10112623;23;20198;-74
2022/11/03 12:41:24;;;;;;;5.43;3.92;;;;;15.40;96023.00;;;;10117379;23;20202;-74
2022/11/03 12:45:29;;;;;;;10.45;3.78;;;;;15.40;96021.00;;;;10116908;23;20205;-75
2022/11/03 12:49:32;;;;;;;3.95;3.47;;;;;15.50;96020.00;;;;10120399;23;20206;-74
2022/11/03 12:53:35;;;;;;;8.30;4.10;;;;;15.50;96022.00;;;;10069424;23;20214;-74
2022/11/03 12:57:38;;;;;;;8.57;4.20;;;;;15.50;96016.00;;;;10069770;23;20211;-74
2022/11/03 13:01:43;;;;;;;9.52;4.18;;;;;15.50;95995.00;;;;10087784;23;20759;-75
2022/11/03 13:05:47;;;;;;;9.38;3.90;;;;;15.60;95996.00;;;;10119845;23;20226;-74
2022/11/03 13:09:50;;;;;;;9.38;4.72;;;;;15.60;95985.00;;;;10118378;23;20214;-74
2022/11/03 13:13:53;;;;;;;11.10;5.07;;;;;15.70;95980.00;;;;10119307;23;20273;-75
2022/11/03 13:17:58;;;;;;;5.88;3.97;;;;;15.70;95986.00;;;;10117885;23;20211;-74
2022/11/03 13:22:15;;;;;;;10.18;4.13;;;;;15.70;95971.00;;;;10110872;23;20206;-76
2022/11/03 13:26:19;;;;;;;8.00;4.13;;;;;15.60;95956.00;;;;10120490;23;20297;-75
2022/11/03 13:30:22;;;;;;;4.03;3.60;;;;;15.60;95964.00;;;;10121541;23;20199;-75
2022/11/03 13:34:27;;;;;;;7.72;4.18;;;;;15.50;95957.00;;;;10120773;23;20237;-75
2022/11/03 13:38:30;;;;;;;5.80;4.35;;;;;15.40;95955.00;;;;10121196;23;20731;-75
2022/11/03 13:42:33;;;;;;;8.63;4.13;;;;;15.40;95947.00;;;;10121705;23;20243;-75
2022/11/03 13:46:36;;;;;;;7.93;3.88;;;;;15.30;95940.00;;;;10115292;23;20274;-75
2022/11/03 13:50:41;;;;;;;6.72;3.85;;;;;15.20;95926.00;;;;10123000;23;20207;-76
2022/11/03 13:54:44;;;;;;;4.88;4.00;;;;;15.20;95917.00;;;;10121157;23;20267;-76
2022/11/03 13:59:07;;;;;;;8.40;4.28;;;;;15.10;95904.00;;;;10122692;23;20206;-76
2022/11/03 14:03:26;;;;;;;7.05;4.50;;;;;15.00;95897.00;;;;10123411;23;20312;-75
2022/11/03 14:07:51;;;;;;;8.65;4.63;;;;;14.90;95889.00;;;;10118784;23;20217;-76
2022/11/03 14:16:14;;;;;;;6.05;4.30;;;;;14.70;95881.00;;;;10074440;23;20502;-76
2022/11/03 14:20:18;;;;;;;5.95;4.63;;;;;14.70;95886.00;;;;10062321;23;20279;-75
2022/11/03 14:24:22;;;;;;;8.23;5.03;;;;;14.70;95876.00;;;;10073334;23;20207;-75
2022/11/03 14:28:25;;;;;;;10.38;4.68;;;;;14.70;95860.00;;;;10068870;23;20203;-73
2022/11/03 14:32:29;;;;;;;13.65;7.85;;;;;14.60;95863.00;;;;10111581;23;20206;-73
2022/11/03 14:36:32;;;;;;;13.00;4.95;;;;;14.40;95860.00;;;;10115575;23;20202;-74
2022/11/03 14:44:57;;;;;;;10.52;5.53;;;;;14.30;95854.00;;;;10116229;23;20210;-74
2022/11/03 14:49:01;;;;;;;14.50;7.90;;;;;14.20;95851.00;;;;10120752;23;20202;-75
2022/11/03 14:53:04;;;;;;;15.65;7.85;;;;;14.10;95841.00;;;;10118176;23;20650;-75
2022/11/03 14:57:09;;;;;;;20.35;8.60;;;;;14.00;95830.00;;;;10121062;23;20206;-76
2022/11/03 15:01:13;;;;;;;16.77;6.03;;;;;13.90;95822.00;;;;10074395;23;20220;-75
2022/11/03 15:09:33;;;;;;;15.95;7.70;;;;;13.70;95823.00;;;;10069197;23;20203;-75
2022/11/03 15:13:37;;;;;;;14.23;8.77;;;;;13.60;95820.00;;;;10071244;23;20210;-75
2022/11/03 15:17:48;;;;;;;20.60;10.23;;;;;13.50;95813.00;;;;10115199;23;20234;-78
2022/11/03 15:21:52;;;;;;;54.28;37.75;;;;;13.40;95807.00;;;;10119333;23;20210;-76
2022/11/03 15:25:55;;;;;;;58.97;41.40;;;;;13.30;95805.00;;;;10113016;23;20210;-76
2022/11/03 15:29:59;;;;;;;14.52;10.48;;;;;13.20;95792.00;;;;10121298;23;20695;-77
2022/11/03 15:34:03;;;;;;;19.92;11.75;;;;;13.10;95782.00;;;;10117218;23;20245;-77
2022/11/03 15:38:12;;;;;;;21.73;11.02;;;;;13.00;95768.00;;;;10111915;23;20546;-77
2022/11/03 15:42:15;;;;;;;100.60;35.60;;;;;12.90;95749.00;;;;10110270;23;20211;-76
2022/11/03 15:46:19;;;;;;;54.05;18.85;;;;;12.80;95748.00;;;;10121349;23;20218;-77
2022/11/03 15:50:24;;;;;;;56.67;19.90;;;;;12.70;95737.00;;;;10115073;23;20257;-77
2022/11/03 15:54:27;;;;;;;64.15;24.75;;;;;12.60;95735.00;;;;10108657;23;20460;-78
2022/11/03 15:58:32;;;;;;;21.13;10.30;;;;;12.50;95721.00;;;;10116992;23;20729;-78
2022/11/03 16:02:37;;;;;;;18.50;8.18;;;;;12.50;95709.00;;;;10115551;23;20258;-77
2022/11/03 16:06:44;;;;;;;21.60;8.50;;;;;12.40;95718.00;;;;10118918;23;20214;-78
2022/11/03 16:11:07;;;;;;;9.45;6.10;;;;;12.30;95707.00;;;;10117589;23;20213;-78
2022/11/03 16:15:11;;;;;;;19.50;6.97;;;;;12.30;95691.00;;;;10117364;23;20202;-76
2022/11/03 16:19:15;;;;;;;14.10;8.00;;;;;12.20;95686.00;;;;10070693;23;20207;-78
2022/11/03 16:23:18;;;;;;;12.38;6.75;;;;;12.20;95693.00;;;;10069756;23;20210;-78
2022/11/03 16:27:22;;;;;;;14.43;7.00;;;;;12.10;95682.00;;;;10068965;23;20523;-77
2022/11/03 16:31:25;;;;;;;13.13;6.43;;;;;12.10;95677.00;;;;10071764;23;20261;-77
2022/11/03 16:35:29;;;;;;;16.48;6.85;;;;;12.10;95675.00;;;;10069391;23;20200;-78
2022/11/03 16:39:32;;;;;;;12.55;7.88;;;;;12.10;95666.00;;;;10067713;23;20513;-77
2022/11/03 16:43:35;;;;;;;116.50;67.85;;;;;12.10;95654.00;;;;10085564;23;20218;-77
2022/11/03 16:47:39;;;;;;;22.30;11.73;;;;;12.00;95655.00;;;;10119773;23;20213;-77
2022/11/03 16:51:43;;;;;;;24.35;11.38;;;;;12.00;95645.00;;;;10116674;23;20220;-77
2022/11/03 16:55:48;;;;;;;26.10;11.90;;;;;12.00;95647.00;;;;10070531;23;20263;-77
2022/11/03 16:59:51;;;;;;;23.90;14.30;;;;;12.00;95629.00;;;;10071628;23;20691;-77
2022/11/03 17:03:54;;;;;;;16.25;8.07;;;;;12.00;95612.00;;;;10076475;23;20225;-77
2022/11/03 17:07:59;;;;;;;18.83;9.70;;;;;12.00;95599.00;;;;10076357;23;20498;-77
2022/11/03 17:12:02;;;;;;;18.13;8.50;;;;;12.00;95590.00;;;;10077061;23;20309;-78
2022/11/03 17:16:05;;;;;;;16.23;8.52;;;;;12.00;95586.00;;;;10076476;23;20217;-77
2022/11/03 17:20:10;;;;;;;14.02;7.68;;;;;12.00;95577.00;;;;10076788;23;20217;-77
2022/11/03 17:24:15;;;;;;;16.33;8.13;;;;;12.00;95564.00;;;;10075814;23;20209;-77
2022/11/03 17:28:18;;;;;;;14.27;7.55;;;;;12.00;95564.00;;;;10126875;23;20202;-77
2022/11/03 17:32:25;;;;;;;15.98;11.70;;;;;12.00;95556.00;;;;10125432;23;20217;-77
2022/11/03 17:36:28;;;;;;;15.90;8.65;;;;;12.00;95556.00;;;;10126542;23;20221;-77
2022/11/03 17:40:32;;;;;;;13.88;7.75;;;;;12.00;95538.00;;;;10126036;23;20509;-77
2022/11/03 17:44:35;;;;;;;19.02;7.68;;;;;12.00;95527.00;;;;10125419;23;20666;-77
2022/11/03 17:48:39;;;;;;;16.65;7.03;;;;;12.00;95512.00;;;;10125416;23;20230;-77
2022/11/03 17:52:44;;;;;;;15.98;10.27;;;;;12.00;95509.00;;;;10124590;23;20210;-77
2022/11/03 17:56:48;;;;;;;19.50;9.32;;;;;11.90;95510.00;;;;10125133;23;20207;-77
2022/11/03 18:00:52;;;;;;;16.83;8.23;;;;;11.90;95492.00;;;;10123641;23;20841;-77
2022/11/03 18:05:19;;;;;;;16.63;9.38;;;;;11.80;95504.00;;;;10126554;23;20213;-77
2022/11/03 18:09:23;;;;;;;23.90;9.25;;;;;11.80;95489.00;;;;10124817;23;20199;-77
2022/11/03 18:13:32;;;;;;;30.02;13.27;;;;;11.80;95480.00;;;;10123503;23;20278;-77
2022/11/03 18:17:36;;;;;;;17.30;9.02;;;;;11.80;95480.00;;;;10122089;23;20916;-77
2022/11/03 18:21:39;;;;;;;22.70;9.93;;;;;11.70;95482.00;;;;10123009;23;20210;-77
2022/11/03 18:25:44;;;;;;;31.60;14.63;;;;;11.70;95463.00;;;;10121750;23;20237;-77
2022/11/03 18:29:49;;;;;;;25.08;10.30;;;;;11.60;95469.00;;;;10123702;23;20201;-77
2022/11/03 18:33:53;;;;;;;29.27;13.38;;;;;11.60;95462.00;;;;10121021;23;20258;-77
2022/11/03 18:37:56;;;;;;;27.38;11.63;;;;;11.60;95450.00;;;;10121253;23;20305;-78
2022/11/03 18:41:59;;;;;;;32.95;15.63;;;;;11.60;95441.00;;;;10117190;23;20222;-75
2022/11/03 18:46:04;;;;;;;22.73;11.18;;;;;11.60;95441.00;;;;10119755;23;20222;-75
2022/11/03 18:50:09;;;;;;;20.45;11.23;;;;;11.60;95435.00;;;;10117341;23;20206;-75
2022/11/03 18:54:14;;;;;;;607.17;281.50;;;;;11.60;95429.00;;;;10119144;23;20205;-75
2022/11/03 18:58:20;;;;;;;1112.55;538.92;;;;;11.60;95423.00;;;;10117683;23;20307;-75
2022/11/03 19:02:26;;;;;;;50.80;24.67;;;;;11.60;95402.00;;;;10119034;23;20210;-75
2022/11/03 19:06:29;;;;;;;28.63;13.35;;;;;11.60;95391.00;;;;10118219;23;20208;-75
2022/11/03 19:10:32;;;;;;;72.20;36.33;;;;;11.60;95394.00;;;;10119308;23;20262;-76
2022/11/03 19:14:38;;;;;;;56.35;27.60;;;;;11.50;95378.00;;;;10108948;23;20206;-75
2022/11/03 19:18:44;;;;;;;407.73;246.45;;;;;11.50;95385.00;;;;10117048;23;20301;-75
2022/11/03 19:22:47;;;;;;;115.93;61.00;;;;;11.50;95381.00;;;;10116002;23;20218;-73
2022/11/03 19:26:56;;;;;;;631.22;276.55;;;;;11.50;95380.00;;;;10114806;23;20270;-74
2022/11/03 19:31:00;;;;;;;145.18;73.90;;;;;11.50;95379.00;;;;10116734;23;20225;-74
2022/11/03 19:35:06;;;;;;;117.88;56.15;;;;;11.50;95362.00;;;;10114651;23;20214;-73
2022/11/03 19:39:14;;;;;;;22.63;12.65;;;;;11.50;95354.00;;;;10116368;23;20217;-73
2022/11/03 19:43:18;;;;;;;25.63;12.23;;;;;11.50;95339.00;;;;10114163;23;20210;-73
2022/11/03 19:47:21;;;;;;;48.20;28.45;;;;;11.50;95330.00;;;;10079943;23;20229;-73
2022/11/03 19:51:30;;;;;;;30.15;14.95;;;;;11.50;95326.00;;;;10115932;23;20644;-72
2022/11/03 19:55:36;;;;;;;27.40;12.30;;;;;11.60;95300.00;;;;10115563;23;20229;-73
2022/11/03 19:59:41;;;;;;;26.13;12.02;;;;;11.60;95297.00;;;;10112016;23;20553;-72
2022/11/03 20:03:45;;;;;;;24.55;12.32;;;;;11.60;95292.00;;;;10116411;23;20220;-73
2022/11/03 20:07:52;;;;;;;33.28;27.67;;;;;11.60;95282.00;;;;10113341;23;20812;-73
2022/11/03 20:11:58;;;;;;;25.23;11.85;;;;;11.70;95283.00;;;;10116817;23;20229;-73
2022/11/03 20:16:01;;;;;;;37.70;21.20;;;;;11.70;95273.00;;;;10115656;23;20217;-72
2022/11/03 20:20:05;;;;;;;23.20;11.25;;;;;11.70;95262.00;;;;10114586;23;20735;-72
2022/11/03 20:24:15;;;;;;;18.13;9.70;;;;;11.80;95274.00;;;;10114996;23;20214;-72
2022/11/03 20:28:20;;;;;;;19.45;9.75;;;;;11.80;95270.00;;;;10115622;23;20209;-72
2022/11/03 20:32:23;;;;;;;17.90;9.77;;;;;11.80;95275.00;;;;10067131;23;20585;-72